Terminal Aerodrome Forecast
Issued by NWS Austin/San Antonio, TX

Home | Current Version | Previous Version | Text Only | Print | Product List | Glossary On
Versions: 1 2 3 4 5 6 7 8 9 10 11 12 13 14 15 16 17
000
FTUS44 KEWX 222300
TAFAUS
TAF
KAUS 222320Z 2300/2406 10004KT P6SM FEW040 SCT250
     FM230600 VRB03KT P6SM FEW035 SCT250
     FM231800 09006KT P6SM SCT040 SCT250=

USA.gov is the U.S. government's official web portal to all federal, state and local government web resources and services.